Leon — D5BH4 — position and weather

sailwx.info

Track history (hours):
 
Tides and Currents Weather Stations Pressure Air Temp Water Temp Dewpoint Dewpoint Depression Visibility Wind Speed Wind Dir Waves Ship Positions

Leon

Last reported at 2016-May-05 02:33 UTC. Time now 2016-May-05 02:56 UTC.
Position N 57°41' E 011°53'.

Length 95 m; draft 5.2 m.

Type: Ship (hazmat cat C). MMSI: 636015519.

Date/timePositionNaut miles runAvg speedWind from/ knotsBaromVisibWave heightAir tempDewpointWater temp
2016-May-05 02:33N 57°41' E 011°53'0 0.0
2016-May-05 01:33N 57°41' E 011°53'0 0.0
2016-May-05 00:33N 57°41' E 011°53'0 0.0
2016-May-04 23:33N 57°41' E 011°53'0 0.0
2016-May-04 22:33N 57°41' E 011°53'0 0.0
2016-May-04 21:33N 57°41' E 011°53'4 3.7
2016-May-04 20:34N 57°40' E 011°47'8 8.4
2016-May-04 19:33N 57°38' E 011°31'9 8.9
2016-May-04 18:33N 57°43' E 011°17'8 8.5
2016-May-04 17:34N 57°48' E 011°04'9 8.8
2016-May-04 16:33N 57°52' E 010°50'8 8.2
2016-May-04 15:34N 57°54' E 010°35'8 8.3
2016-May-04 14:33N 57°55' E 010°19'9 8.5
2016-May-04 13:33N 57°55' E 010°03'1010.5
2016-May-04 12:34N 57°51' E 009°45'19710.3
2016-May-03 17:30N 55°06' E 006°32'1010.1
2016-May-03 16:33N 54°57' E 006°23'59 9.7
2016-May-03 10:29N 54°14' E 005°16'11 8.8
2016-May-03 09:13N 54°04' E 005°07'7 8.7
2016-May-03 08:26N 53°57' E 005°03'64 9.2
2016-May-03 01:33N 52°59' E 004°21'1110.9
2016-May-03 00:34N 52°49' E 004°13'1110.7
2016-May-02 23:33N 52°41' E 004°02'58 3.9
2016-May-02 08:32N 51°48' E 003°23'0 0.0
2016-May-02 07:29N 51°48' E 003°23'0 0.0
2016-May-02 06:32N 51°48' E 003°23'0 0.1
2016-May-02 04:32N 51°48' E 003°23'0 0.0
2016-May-02 03:32N 51°48' E 003°23'0 0.1
2016-May-02 02:23N 51°48' E 003°23'0 0.0
2016-May-02 01:32N 51°48' E 003°23'0 0.0
2016-May-02 00:32N 51°48' E 003°23'0 0.0
2016-May-01 23:23N 51°48' E 003°23'0 0.0
2016-May-01 18:14N 51°48' E 003°23'  
2016-Apr-29 13:20N 51°48' E 003°23'0 0.0
2016-Apr-29 12:32N 51°48' E 003°23'0 0.0
2016-Apr-29 11:26N 51°48' E 003°23'  
2016-Apr-26 16:33N 51°48' E 003°23'0 0.3
2016-Apr-26 15:15N 51°47' E 003°24'0 0.0
2016-Apr-26 03:30N 51°48' E 003°24'0 0.0
2016-Apr-26 02:33N 51°48' E 003°24'0 0.1
2016-Apr-26 01:33N 51°48' E 003°24'  
Track history (hours):
 
Tides and Currents Weather Stations Pressure Air Temp Water Temp Dewpoint Dewpoint Depression Visibility Wind Speed Wind Dir Waves Ship Positions

Leon

Last reported at 2016-May-05 02:33 UTC. Time now 2016-May-05 02:56 UTC.
Position N 57°41' E 011°53'.

Length 95 m; draft 5.2 m.

Type: Ship (hazmat cat C). MMSI: 636015519.

Date/timePositionNaut miles runAvg speedWind from/ knotsBaromVisibWave heightAir tempDewpointWater temp
2016-May-05 02:33N 57°41' E 011°53'0 0.0
2016-May-05 01:33N 57°41' E 011°53'0 0.0
2016-May-05 00:33N 57°41' E 011°53'0 0.0
2016-May-04 23:33N 57°41' E 011°53'0 0.0
2016-May-04 22:33N 57°41' E 011°53'0 0.0
2016-May-04 21:33N 57°41' E 011°53'4 3.7
2016-May-04 20:34N 57°40' E 011°47'8 8.4
2016-May-04 19:33N 57°38' E 011°31'9 8.9
2016-May-04 18:33N 57°43' E 011°17'8 8.5
2016-May-04 17:34N 57°48' E 011°04'9 8.8
2016-May-04 16:33N 57°52' E 010°50'8 8.2
2016-May-04 15:34N 57°54' E 010°35'8 8.3
2016-May-04 14:33N 57°55' E 010°19'9 8.5
2016-May-04 13:33N 57°55' E 010°03'1010.5
2016-May-04 12:34N 57°51' E 009°45'19710.3
2016-May-03 17:30N 55°06' E 006°32'1010.1
2016-May-03 16:33N 54°57' E 006°23'59 9.7
2016-May-03 10:29N 54°14' E 005°16'11 8.8
2016-May-03 09:13N 54°04' E 005°07'7 8.7
2016-May-03 08:26N 53°57' E 005°03'64 9.2
2016-May-03 01:33N 52°59' E 004°21'1110.9
2016-May-03 00:34N 52°49' E 004°13'1110.7
2016-May-02 23:33N 52°41' E 004°02'58 3.9
2016-May-02 08:32N 51°48' E 003°23'0 0.0
2016-May-02 07:29N 51°48' E 003°23'0 0.0
2016-May-02 06:32N 51°48' E 003°23'0 0.1
2016-May-02 04:32N 51°48' E 003°23'0 0.0
2016-May-02 03:32N 51°48' E 003°23'0 0.1
2016-May-02 02:23N 51°48' E 003°23'0 0.0
2016-May-02 01:32N 51°48' E 003°23'0 0.0
2016-May-02 00:32N 51°48' E 003°23'0 0.0
2016-May-01 23:23N 51°48' E 003°23'0 0.0
2016-May-01 18:14N 51°48' E 003°23'  
2016-Apr-29 13:20N 51°48' E 003°23'0 0.0
2016-Apr-29 12:32N 51°48' E 003°23'0 0.0
2016-Apr-29 11:26N 51°48' E 003°23'  
2016-Apr-26 16:33N 51°48' E 003°23'0 0.3
2016-Apr-26 15:15N 51°47' E 003°24'0 0.0
2016-Apr-26 03:30N 51°48' E 003°24'0 0.0
2016-Apr-26 02:33N 51°48' E 003°24'0 0.1
2016-Apr-26 01:33N 51°48' E 003°24'  

Dump ship's entire track history